createdAt,value
2019-05-20T00:00:23.456Z,96.00
2019-05-20T00:02:52.067Z,96.00
2019-05-20T00:05:20.625Z,96.10
2019-05-20T00:07:49.119Z,96.10
2019-05-20T00:10:17.571Z,96.20
2019-05-20T00:12:46.039Z,96.30
2019-05-20T00:15:14.609Z,96.30
2019-05-20T00:17:43.106Z,96.80
2019-05-20T00:20:11.763Z,96.50
2019-05-20T00:22:40.368Z,96.40
2019-05-20T00:25:09.251Z,96.50
2019-05-20T00:27:37.837Z,96.40
2019-05-20T00:30:07.669Z,96.50
2019-05-20T00:32:41.015Z,96.60
2019-05-20T00:35:07.770Z,96.60
2019-05-20T00:37:36.344Z,96.60
2019-05-20T00:40:09.375Z,96.60
2019-05-20T00:42:37.950Z,96.70
2019-05-20T00:45:06.944Z,96.80
2019-05-20T00:47:35.449Z,96.80
2019-05-20T00:50:05.363Z,96.90
2019-05-20T00:52:34.008Z,96.80
2019-05-20T00:55:02.611Z,96.90
2019-05-20T00:57:31.085Z,97.00
2019-05-20T00:59:59.619Z,97.00
2019-05-20T01:02:28.156Z,97.00
2019-05-20T01:04:56.694Z,97.10
2019-05-20T01:07:25.620Z,97.10
2019-05-20T01:09:54.200Z,97.20
2019-05-20T01:12:22.742Z,97.20
2019-05-20T01:14:51.688Z,97.30
2019-05-20T01:17:20.252Z,97.30
2019-05-20T01:19:48.823Z,97.20
2019-05-20T01:22:17.394Z,97.00
2019-05-20T01:24:45.857Z,97.20
2019-05-20T01:27:14.360Z,97.60
2019-05-20T01:29:42.927Z,97.30
2019-05-20T01:32:11.459Z,97.50
2019-05-20T01:34:39.961Z,97.60
2019-05-20T01:37:08.569Z,97.50
2019-05-20T01:39:37.145Z,97.50
2019-05-20T01:42:06.550Z,97.60
2019-05-20T01:44:35.114Z,97.60
2019-05-20T01:47:03.687Z,97.60
2019-05-20T01:49:32.276Z,97.70
2019-05-20T01:52:00.874Z,97.80
2019-05-20T01:54:29.411Z,97.90
2019-05-20T01:56:57.919Z,97.80
2019-05-20T01:59:26.534Z,97.90
2019-05-20T02:01:55.114Z,97.90
2019-05-20T02:04:23.680Z,98.00
2019-05-20T02:06:52.270Z,98.00
2019-05-20T02:09:20.812Z,98.10
2019-05-20T02:11:49.351Z,98.10
2019-05-20T02:14:25.814Z,98.10
2019-05-20T02:16:54.357Z,98.10
2019-05-20T02:19:22.924Z,98.20
2019-05-20T02:21:51.513Z,98.20
2019-05-20T02:24:20.088Z,98.20
2019-05-20T02:26:48.639Z,98.30
2019-05-20T02:29:17.236Z,98.30
2019-05-20T02:31:45.810Z,98.30
2019-05-20T02:34:14.388Z,98.20
2019-05-20T02:36:42.982Z,98.20
2019-05-20T02:39:11.853Z,98.30
2019-05-20T02:41:40.422Z,98.20
2019-05-20T02:44:09.043Z,98.20
2019-05-20T02:46:37.640Z,98.20
2019-05-20T02:49:06.142Z,98.20
2019-05-20T02:51:34.682Z,98.10
2019-05-20T02:54:03.467Z,98.10
2019-05-20T02:56:32.188Z,98.10
2019-05-20T02:59:01.316Z,98.10
2019-05-20T03:01:29.933Z,97.80
2019-05-20T03:04:10.849Z,97.90
2019-05-20T03:06:30.456Z,97.90
2019-05-20T03:08:59.004Z,97.80
2019-05-20T03:11:27.506Z,97.80
2019-05-20T03:13:56.085Z,97.60
2019-05-20T03:16:24.668Z,97.60
2019-05-20T03:18:53.230Z,97.50
2019-05-20T03:21:21.797Z,97.40
2019-05-20T03:23:50.338Z,97.30
2019-05-20T03:26:18.833Z,97.20
2019-05-20T03:28:47.454Z,97.00
2019-05-20T03:31:15.997Z,96.90
2019-05-20T03:33:44.533Z,96.80
2019-05-20T03:36:13.153Z,96.70
2019-05-20T03:38:41.701Z,96.60
2019-05-20T03:41:10.234Z,96.30
2019-05-20T03:43:38.744Z,96.20
2019-05-20T03:46:07.263Z,96.10
2019-05-20T03:48:35.801Z,96.00
2019-05-20T03:51:04.424Z,95.90
2019-05-20T03:53:33.006Z,95.70
2019-05-20T03:56:01.615Z,95.70
2019-05-20T03:58:30.170Z,95.40
2019-05-20T04:00:58.771Z,95.30
2019-05-20T04:03:27.348Z,95.30
2019-05-20T04:05:55.924Z,95.10
2019-05-20T04:08:24.396Z,95.00
2019-05-20T04:10:52.873Z,94.90
2019-05-20T04:13:21.440Z,94.90
2019-05-20T04:15:49.979Z,95.00
2019-05-20T04:18:18.558Z,94.50
2019-05-20T04:20:47.175Z,94.30
2019-05-20T04:23:15.784Z,94.10
2019-05-20T04:25:44.314Z,94.10
2019-05-20T04:28:12.916Z,93.90
2019-05-20T04:30:41.931Z,93.70
2019-05-20T04:33:10.536Z,93.30
2019-05-20T04:35:39.494Z,93.30
2019-05-20T04:38:08.024Z,93.30
2019-05-20T04:40:36.563Z,93.10
2019-05-20T04:43:05.098Z,92.90
2019-05-20T04:45:33.623Z,92.50
2019-05-20T04:48:02.179Z,92.40
2019-05-20T04:50:30.822Z,92.20
2019-05-20T04:52:59.331Z,92.00
2019-05-20T04:55:27.865Z,92.00
2019-05-20T04:57:56.426Z,91.50
2019-05-20T05:00:49.398Z,91.40
2019-05-20T05:03:18.005Z,91.30
2019-05-20T05:05:46.830Z,90.90
2019-05-20T05:08:15.759Z,90.70
2019-05-20T05:10:44.435Z,90.20
2019-05-20T05:13:12.998Z,90.10
2019-05-20T05:15:41.575Z,90.20
2019-05-20T05:18:10.133Z,89.50
2019-05-20T05:20:38.706Z,88.70
2019-05-20T05:23:07.263Z,88.70
2019-05-20T05:25:36.587Z,89.20
2019-05-20T05:28:05.867Z,88.20
2019-05-20T05:30:35.771Z,88.30
2019-05-20T05:33:04.822Z,88.30
2019-05-20T05:35:33.359Z,87.70
2019-05-20T05:38:02.800Z,87.70
2019-05-20T05:40:32.219Z,87.20
2019-05-20T05:43:00.698Z,86.80
2019-05-20T05:45:31.877Z,86.60
2019-05-20T05:48:01.221Z,86.90
2019-05-20T05:50:29.955Z,87.10
2019-05-20T05:52:58.547Z,85.70
2019-05-20T05:55:27.115Z,86.00
2019-05-20T05:57:55.614Z,85.20
2019-05-20T06:00:24.612Z,85.10
2019-05-20T06:02:53.213Z,84.80
2019-05-20T06:05:21.781Z,84.70
2019-05-20T06:07:50.351Z,85.10
2019-05-20T06:10:19.728Z,85.30
2019-05-20T06:12:48.335Z,84.30
2019-05-20T06:15:17.676Z,84.40
2019-05-20T06:17:46.299Z,83.60
2019-05-20T06:20:16.570Z,82.40
2019-05-20T06:22:45.236Z,82.80
2019-05-20T06:25:14.302Z,82.00
2019-05-20T06:27:42.875Z,82.00
2019-05-20T06:30:12.910Z,82.40
2019-05-20T06:32:41.871Z,82.80
2019-05-20T06:35:11.322Z,83.00
2019-05-20T06:37:56.943Z,83.30
2019-05-20T06:40:25.524Z,82.20
2019-05-20T06:42:54.822Z,83.50
2019-05-20T06:45:23.439Z,83.20
2019-05-20T06:47:52.012Z,82.60
2019-05-20T06:50:20.611Z,81.90
2019-05-20T06:52:49.173Z,82.40
2019-05-20T06:55:17.832Z,82.70
2019-05-20T06:57:46.543Z,81.70
2019-05-20T07:00:18.173Z,81.30
2019-05-20T07:02:46.848Z,79.80
2019-05-20T07:05:15.755Z,79.20
2019-05-20T07:07:44.287Z,78.60
2019-05-20T07:10:12.945Z,78.10
2019-05-20T07:12:41.939Z,78.40
2019-05-20T07:15:11.207Z,77.50
2019-05-20T07:17:39.694Z,77.60
2019-05-20T07:20:08.685Z,78.00
2019-05-20T07:22:54.577Z,77.60
2019-05-20T07:25:08.244Z,77.10
2019-05-20T07:27:36.788Z,75.40
2019-05-20T07:30:09.299Z,74.80
2019-05-20T07:32:37.847Z,73.70
2019-05-20T07:35:07.554Z,72.80
2019-05-20T07:37:36.674Z,71.60
2019-05-20T07:40:06.888Z,71.60
2019-05-20T07:42:35.561Z,72.10
2019-05-20T07:45:06.489Z,71.80
2019-05-20T07:47:35.674Z,70.70
2019-05-20T07:50:08.822Z,71.30
2019-05-20T07:52:37.262Z,70.60
2019-05-20T07:55:07.524Z,70.40
2019-05-20T07:57:39.036Z,71.40
2019-05-20T08:00:10.779Z,69.40
2019-05-20T08:02:39.809Z,68.30
2019-05-20T08:05:09.533Z,68.50
2019-05-20T08:07:51.492Z,67.40
2019-05-20T08:10:09.060Z,67.90
2019-05-20T08:12:37.687Z,65.90
2019-05-20T08:15:08.143Z,65.60
2019-05-20T08:17:36.779Z,64.20
2019-05-20T08:20:07.293Z,63.00
2019-05-20T08:22:35.946Z,63.00
2019-05-20T08:25:06.608Z,62.00
2019-05-20T08:27:35.272Z,62.70
2019-05-20T08:30:06.590Z,63.30
2019-05-20T08:32:35.129Z,64.50
2019-05-20T08:35:05.133Z,61.00
2019-05-20T08:37:44.858Z,57.80
2019-05-20T08:40:05.193Z,57.10
2019-05-20T08:42:33.733Z,55.60
2019-05-20T08:45:03.059Z,55.90
2019-05-20T08:47:33.061Z,50.90
2019-05-20T08:50:03.954Z,50.50
2019-05-20T08:52:32.039Z,51.00
2019-05-20T08:55:00.521Z,50.10
2019-05-20T08:57:29.108Z,51.10
2019-05-20T08:59:57.707Z,51.10
2019-05-20T09:02:26.249Z,53.00
2019-05-20T09:04:54.783Z,51.70
2019-05-20T09:07:23.420Z,53.50
2019-05-20T09:09:51.967Z,53.80
2019-05-20T09:12:20.552Z,54.20
2019-05-20T09:14:49.148Z,56.50
2019-05-20T09:17:17.827Z,59.00
2019-05-20T09:19:47.267Z,58.10
2019-05-20T09:22:16.009Z,58.40
2019-05-20T09:24:45.689Z,58.50
2019-05-20T09:27:14.479Z,58.20
2019-05-20T09:29:43.393Z,56.70
2019-05-20T09:32:12.202Z,55.90
2019-05-20T09:34:41.780Z,53.10
2019-05-20T09:37:10.356Z,53.30
2019-05-20T09:39:38.903Z,53.50
2019-05-20T09:42:07.480Z,53.30
2019-05-20T09:44:36.087Z,53.90
2019-05-20T09:47:04.657Z,53.60
2019-05-20T09:49:33.428Z,53.50
2019-05-20T09:52:02.240Z,53.60
2019-05-20T09:54:30.805Z,53.00
2019-05-20T09:56:59.348Z,52.20
2019-05-20T09:59:42.159Z,52.80
2019-05-20T10:01:58.108Z,52.70
2019-05-20T10:04:26.769Z,54.10
2019-05-20T10:06:55.321Z,53.90
2019-05-20T10:09:24.062Z,55.00
2019-05-20T10:11:52.722Z,53.80
2019-05-20T10:14:21.317Z,51.50
2019-05-20T10:16:49.972Z,51.00
2019-05-20T10:19:18.546Z,47.80
2019-05-20T10:21:47.130Z,45.30
2019-05-20T10:24:15.648Z,47.00
2019-05-20T10:26:44.183Z,49.30
2019-05-20T10:29:12.684Z,52.80
2019-05-20T10:31:41.320Z,53.00
2019-05-20T10:34:09.880Z,52.90
2019-05-20T10:36:38.461Z,51.80
2019-05-20T10:39:08.434Z,53.80
2019-05-20T10:41:37.523Z,55.00
2019-05-20T10:44:06.093Z,56.00
2019-05-20T10:46:34.731Z,56.30
2019-05-20T10:49:03.333Z,57.30
2019-05-20T10:51:31.939Z,55.90
2019-05-20T10:54:00.881Z,53.80
2019-05-20T10:56:29.675Z,51.40
2019-05-20T10:58:58.236Z,51.40
2019-05-20T11:01:26.789Z,52.30
2019-05-20T11:03:55.360Z,50.80
2019-05-20T11:06:23.945Z,48.90
2019-05-20T11:08:52.589Z,50.40
2019-05-20T11:11:21.149Z,52.40
2019-05-20T11:13:49.720Z,54.80
2019-05-20T11:16:18.382Z,56.80
2019-05-20T11:18:46.891Z,58.40
2019-05-20T11:21:15.901Z,60.10
2019-05-20T11:23:44.445Z,62.20
2019-05-20T11:26:13.020Z,64.40
2019-05-20T11:28:43.124Z,65.90
2019-05-20T11:31:11.660Z,66.10
2019-05-20T11:33:40.245Z,65.90
2019-05-20T11:36:08.810Z,66.20
2019-05-20T11:38:37.348Z,71.10
2019-05-20T11:41:05.824Z,74.90
2019-05-20T11:43:34.440Z,78.50
2019-05-20T11:46:02.976Z,81.50
2019-05-20T11:48:31.520Z,84.90
2019-05-20T11:51:00.050Z,87.10
2019-05-20T11:53:28.660Z,86.90
2019-05-20T11:55:57.129Z,89.20
2019-05-20T11:58:25.660Z,88.60
2019-05-20T12:00:54.207Z,87.60
2019-05-20T12:03:22.755Z,88.50
2019-05-20T12:05:51.392Z,89.80
2019-05-20T12:08:19.937Z,89.70
2019-05-20T12:10:48.484Z,89.80
2019-05-20T12:13:17.063Z,88.00
2019-05-20T12:15:45.618Z,87.40
2019-05-20T12:18:15.100Z,87.10
2019-05-20T12:20:43.715Z,86.30
2019-05-20T12:23:12.261Z,86.10
2019-05-20T12:25:40.769Z,84.30
2019-05-20T12:28:09.413Z,87.10
2019-05-20T12:30:38.315Z,87.80
2019-05-20T12:33:18.552Z,88.90
2019-05-20T12:35:37.478Z,89.20
2019-05-20T12:38:06.070Z,89.40
2019-05-20T12:40:34.636Z,87.10
2019-05-20T12:43:03.816Z,86.60
2019-05-20T12:45:32.363Z,85.90
2019-05-20T12:48:00.945Z,85.40
2019-05-20T12:50:29.623Z,85.90
2019-05-20T12:52:58.172Z,86.00
2019-05-20T12:55:26.699Z,84.40
2019-05-20T12:57:55.217Z,85.10
2019-05-20T13:00:24.256Z,83.20
2019-05-20T13:02:52.830Z,83.80
2019-05-20T13:05:21.465Z,82.10
2019-05-20T13:07:49.928Z,79.10
2019-05-20T13:10:29.771Z,78.50
2019-05-20T13:12:48.977Z,77.00
2019-05-20T13:15:17.964Z,74.70
2019-05-20T13:17:46.543Z,75.10
2019-05-20T13:20:15.665Z,75.70
2019-05-20T13:22:44.328Z,78.80
2019-05-20T13:25:13.352Z,77.70
2019-05-20T13:27:41.961Z,79.30
2019-05-20T13:30:11.951Z,80.50
2019-05-20T13:32:40.546Z,80.20
2019-05-20T13:35:09.765Z,79.20
2019-05-20T13:37:38.329Z,79.90
2019-05-20T13:40:07.908Z,80.00
2019-05-20T13:42:36.679Z,81.00
2019-05-20T13:45:06.771Z,81.30
2019-05-20T13:47:35.624Z,82.30
2019-05-20T13:50:07.287Z,83.10
2019-05-20T13:52:35.882Z,82.90
2019-05-20T13:55:05.425Z,83.10
2019-05-20T13:57:34.463Z,83.60
2019-05-20T14:00:03.247Z,83.80
2019-05-20T14:02:31.779Z,84.10
2019-05-20T14:05:00.391Z,84.60
2019-05-20T14:07:28.969Z,85.20
2019-05-20T14:09:57.542Z,86.30
2019-05-20T14:12:26.158Z,87.80
2019-05-20T14:14:54.704Z,89.00
2019-05-20T14:17:23.210Z,90.30
2019-05-20T14:19:51.821Z,90.00
2019-05-20T14:22:20.385Z,90.60
2019-05-20T14:24:48.916Z,91.00
2019-05-20T14:27:17.641Z,91.70
2019-05-20T14:29:46.188Z,93.10
2019-05-20T14:32:14.714Z,92.80
2019-05-20T14:34:43.412Z,93.20
2019-05-20T14:37:11.987Z,92.20
2019-05-20T14:39:40.565Z,91.70
2019-05-20T14:42:09.448Z,92.50
2019-05-20T14:44:37.999Z,93.20
2019-05-20T14:47:06.571Z,92.60
2019-05-20T14:49:35.196Z,93.40
2019-05-20T14:52:03.897Z,93.70
2019-05-20T14:54:32.471Z,94.10
2019-05-20T14:57:01.072Z,95.10
2019-05-20T14:59:31.133Z,96.10
2019-05-20T15:01:59.728Z,96.70
2019-05-20T15:04:28.320Z,95.60
2019-05-20T15:06:56.884Z,95.60
2019-05-20T15:09:25.545Z,95.50
2019-05-20T15:11:54.357Z,94.90
2019-05-20T15:14:22.896Z,95.50
2019-05-20T15:16:51.363Z,96.50
2019-05-20T15:19:19.951Z,97.50
2019-05-20T15:21:48.572Z,97.70
2019-05-20T15:24:17.083Z,98.30
2019-05-20T15:26:46.030Z,99.30
2019-05-20T15:29:27.603Z,99.50
2019-05-20T15:31:44.844Z,99.80
2019-05-20T15:34:13.409Z,99.50
2019-05-20T15:36:41.983Z,99.90
2019-05-20T15:39:10.787Z,99.80
2019-05-20T15:41:39.324Z,99.10
2019-05-20T15:44:07.848Z,97.70
2019-05-20T15:46:36.421Z,97.80
2019-05-20T15:49:05.098Z,97.20
2019-05-20T15:51:33.670Z,96.70
2019-05-20T15:54:02.294Z,97.00
2019-05-20T15:56:31.613Z,97.70
2019-05-20T15:59:00.082Z,98.00
2019-05-20T16:01:28.771Z,98.70
2019-05-20T16:03:57.383Z,99.00
2019-05-20T16:06:25.997Z,99.40
2019-05-20T16:08:54.564Z,99.90
2019-05-20T16:11:23.156Z,99.90
2019-05-20T16:13:51.845Z,99.90
2019-05-20T16:16:20.478Z,99.90
2019-05-20T16:18:49.054Z,99.90
2019-05-20T16:21:17.598Z,99.90
2019-05-20T16:23:46.097Z,99.90
2019-05-20T16:26:14.671Z,99.90
2019-05-20T16:28:43.250Z,99.90
2019-05-20T16:31:11.936Z,99.90
2019-05-20T16:33:40.535Z,99.90
2019-05-20T16:36:09.076Z,99.90
2019-05-20T16:38:37.558Z,99.90
2019-05-20T16:41:06.229Z,99.90
2019-05-20T16:43:34.817Z,99.80
2019-05-20T16:46:03.380Z,99.90
2019-05-20T16:48:31.973Z,99.70
2019-05-20T16:51:00.535Z,99.10
2019-05-20T16:53:29.107Z,98.80
2019-05-20T16:55:58.476Z,99.20
2019-05-20T16:58:27.002Z,99.10
2019-05-20T17:00:55.480Z,99.20
2019-05-20T17:03:24.098Z,99.40
2019-05-20T17:05:52.632Z,99.10
2019-05-20T17:08:21.153Z,98.70
2019-05-20T17:10:49.687Z,98.80
2019-05-20T17:13:18.256Z,98.90
2019-05-20T17:15:46.828Z,99.10
2019-05-20T17:18:15.422Z,99.40
2019-05-20T17:20:46.131Z,99.40
2019-05-20T17:23:14.214Z,99.40
2019-05-20T17:25:42.837Z,99.70
2019-05-20T17:28:11.382Z,99.60
2019-05-20T17:30:45.359Z,99.50
2019-05-20T17:33:10.195Z,99.80
2019-05-20T17:35:38.740Z,99.60
2019-05-20T17:38:07.520Z,99.40
2019-05-20T17:40:36.349Z,99.40
2019-05-20T17:43:05.339Z,99.40
2019-05-20T17:45:33.858Z,99.50
2019-05-20T17:48:02.538Z,99.80
2019-05-20T17:50:31.141Z,99.90
2019-05-20T17:52:59.769Z,99.90
2019-05-20T17:55:29.767Z,99.90
2019-05-20T17:57:58.508Z,99.90
2019-05-20T18:00:27.053Z,99.90
2019-05-20T18:02:55.654Z,99.90
2019-05-20T18:05:24.231Z,99.90
2019-05-20T18:07:52.872Z,99.90
2019-05-20T18:10:23.084Z,99.90
2019-05-20T18:12:51.657Z,99.90
2019-05-20T18:15:20.871Z,99.90
2019-05-20T18:17:49.527Z,99.90
2019-05-20T18:20:18.212Z,99.90
2019-05-20T18:22:46.720Z,99.90
2019-05-20T18:25:15.747Z,99.90
2019-05-20T18:27:44.311Z,99.90
2019-05-20T18:30:13.965Z,99.90
2019-05-20T18:32:42.550Z,99.80
2019-05-20T18:35:11.861Z,99.90
2019-05-20T18:37:44.151Z,99.80
2019-05-20T18:40:15.104Z,99.90
2019-05-20T18:42:44.018Z,99.90
2019-05-20T18:45:13.091Z,99.90
2019-05-20T18:47:41.946Z,99.90
2019-05-20T18:50:11.066Z,99.90
2019-05-20T18:52:39.723Z,99.90
2019-05-20T18:55:08.714Z,99.90
2019-05-20T18:57:37.186Z,99.90
2019-05-20T19:00:08.932Z,99.90
2019-05-20T19:02:38.192Z,99.90
2019-05-20T19:05:07.569Z,99.90
2019-05-20T19:07:36.175Z,99.90
2019-05-20T19:10:06.097Z,99.90
2019-05-20T19:12:34.671Z,99.90
2019-05-20T19:15:03.755Z,99.90
2019-05-20T19:17:32.677Z,99.90
2019-05-20T19:20:01.452Z,99.90
2019-05-20T19:22:30.222Z,99.90
2019-05-20T19:24:58.785Z,99.90
2019-05-20T19:27:27.376Z,99.90
2019-05-20T19:29:55.907Z,99.90
2019-05-20T19:32:24.609Z,99.90
2019-05-20T19:34:53.180Z,99.90
2019-05-20T19:37:21.733Z,99.90
2019-05-20T19:39:50.291Z,99.90
2019-05-20T19:42:19.000Z,99.90
2019-05-20T19:44:47.741Z,99.90
2019-05-20T19:47:16.337Z,99.90
2019-05-20T19:49:44.906Z,99.90
2019-05-20T19:52:13.491Z,99.90
2019-05-20T19:54:42.069Z,99.90
2019-05-20T19:57:10.652Z,99.90
2019-05-20T19:59:39.195Z,99.90
2019-05-20T20:02:16.852Z,99.90
2019-05-20T20:04:37.991Z,99.90
2019-05-20T20:07:06.497Z,99.90
2019-05-20T20:09:35.220Z,99.90
2019-05-20T20:12:03.784Z,99.90
2019-05-20T20:14:32.420Z,99.90
2019-05-20T20:17:01.017Z,99.90
2019-05-20T20:19:29.495Z,99.90
2019-05-20T20:21:58.021Z,99.90
2019-05-20T20:24:27.142Z,99.90
2019-05-20T20:26:55.636Z,99.90
2019-05-20T20:29:24.184Z,99.90
2019-05-20T20:31:52.685Z,99.90
2019-05-20T20:34:21.260Z,99.90
2019-05-20T20:36:49.901Z,99.90
2019-05-20T20:39:18.496Z,99.90
2019-05-20T20:41:46.974Z,99.90
2019-05-20T20:44:15.516Z,99.90
2019-05-20T20:46:44.025Z,99.90
2019-05-20T20:49:14.770Z,99.90
2019-05-20T20:51:42.826Z,99.90
2019-05-20T20:54:11.440Z,99.90
2019-05-20T20:56:39.995Z,99.90
2019-05-20T20:59:08.588Z,99.90
2019-05-20T21:01:37.151Z,99.90
2019-05-20T21:04:05.762Z,99.90
2019-05-20T21:06:34.445Z,99.90
2019-05-20T21:09:03.851Z,99.90
2019-05-20T21:11:32.357Z,99.90
2019-05-20T21:14:00.887Z,99.90
2019-05-20T21:16:29.794Z,99.90
2019-05-20T21:18:58.347Z,99.90
2019-05-20T21:21:26.924Z,99.90
2019-05-20T21:23:55.541Z,99.90
2019-05-20T21:26:24.073Z,99.90
2019-05-20T21:28:52.620Z,99.90
2019-05-20T21:31:21.262Z,99.90
2019-05-20T21:33:49.844Z,99.90
2019-05-20T21:36:18.374Z,99.90
2019-05-20T21:38:46.943Z,99.90
2019-05-20T21:41:15.407Z,99.90
2019-05-20T21:43:43.919Z,99.90
2019-05-20T21:46:12.544Z,99.90
2019-05-20T21:48:41.077Z,99.90
2019-05-20T21:51:09.630Z,99.90
2019-05-20T21:53:38.207Z,99.90
2019-05-20T21:56:06.748Z,99.90
2019-05-20T21:58:35.326Z,99.90
2019-05-20T22:01:04.025Z,99.90
2019-05-20T22:03:32.526Z,99.90
2019-05-20T22:06:01.078Z,99.90
2019-05-20T22:08:29.976Z,99.80
2019-05-20T22:10:58.506Z,99.90
2019-05-20T22:13:27.081Z,99.90
2019-05-20T22:15:55.698Z,99.90
2019-05-20T22:18:24.268Z,99.90
2019-05-20T22:20:52.887Z,99.90
2019-05-20T22:23:23.071Z,99.90
2019-05-20T22:25:52.925Z,99.90
2019-05-20T22:28:21.489Z,99.90
2019-05-20T22:30:50.090Z,99.90
2019-05-20T22:33:18.883Z,99.90
2019-05-20T22:35:47.568Z,99.90
2019-05-20T22:38:16.128Z,99.90
2019-05-20T22:40:45.917Z,99.90
2019-05-20T22:43:14.453Z,99.90
2019-05-20T22:45:42.996Z,99.90
2019-05-20T22:48:11.588Z,99.90
2019-05-20T22:50:40.182Z,99.90
2019-05-20T22:53:08.788Z,99.90
2019-05-20T22:55:37.560Z,99.90
2019-05-20T22:58:06.382Z,99.90
2019-05-20T23:00:34.951Z,99.90
2019-05-20T23:03:03.499Z,99.90
2019-05-20T23:05:32.101Z,99.90
2019-05-20T23:08:00.637Z,99.90
2019-05-20T23:10:29.482Z,99.90
2019-05-20T23:12:58.059Z,99.90
2019-05-20T23:15:26.667Z,99.90
2019-05-20T23:17:55.205Z,99.90
2019-05-20T23:20:23.779Z,99.90
2019-05-20T23:22:52.387Z,99.90
2019-05-20T23:25:20.922Z,99.90
2019-05-20T23:27:49.416Z,99.90
2019-05-20T23:30:18.363Z,99.90
2019-05-20T23:32:46.985Z,99.90
2019-05-20T23:35:15.628Z,99.90
2019-05-20T23:37:44.225Z,99.90
2019-05-20T23:40:13.341Z,99.90
2019-05-20T23:42:41.873Z,99.90
2019-05-20T23:45:11.418Z,99.90
2019-05-20T23:47:39.989Z,99.90
2019-05-20T23:50:08.628Z,99.90
2019-05-20T23:52:37.205Z,99.90
2019-05-20T23:55:07.921Z,99.90
2019-05-20T23:57:36.558Z,99.90
